sensor_id;sensor_type;location;lat;lon;timestamp;temperature;humidity
18868;DHT22;9563;49.240;9.088;2022-10-31T00:00:31;11.20;99.90
18868;DHT22;9563;49.240;9.088;2022-10-31T00:02:58;11.10;99.90
18868;DHT22;9563;49.240;9.088;2022-10-31T00:05:25;11.20;99.90
18868;DHT22;9563;49.240;9.088;2022-10-31T00:07:54;11.20;99.90
18868;DHT22;9563;49.240;9.088;2022-10-31T00:10:21;11.20;99.90
18868;DHT22;9563;49.240;9.088;2022-10-31T00:12:48;11.20;99.90
18868;DHT22;9563;49.240;9.088;2022-10-31T00:15:14;11.20;99.90
18868;DHT22;9563;49.240;9.088;2022-10-31T00:17:41;11.20;99.90
18868;DHT22;9563;49.240;9.088;2022-10-31T00:20:09;11.10;99.90
18868;DHT22;9563;49.240;9.088;2022-10-31T00:22:36;11.00;99.90
18868;DHT22;9563;49.240;9.088;2022-10-31T00:25:05;10.90;99.90
18868;DHT22;9563;49.240;9.088;2022-10-31T00:27:32;10.80;99.90
18868;DHT22;9563;49.240;9.088;2022-10-31T00:29:59;10.80;99.90
18868;DHT22;9563;49.240;9.088;2022-10-31T00:32:28;10.70;99.90
18868;DHT22;9563;49.240;9.088;2022-10-31T00:34:55;10.70;99.90
18868;DHT22;9563;49.240;9.088;2022-10-31T00:37:22;10.60;99.90
18868;DHT22;9563;49.240;9.088;2022-10-31T00:39:49;10.60;99.90
18868;DHT22;9563;49.240;9.088;2022-10-31T00:42:17;10.70;99.90
18868;DHT22;9563;49.240;9.088;2022-10-31T00:44:44;10.70;99.90
18868;DHT22;9563;49.240;9.088;2022-10-31T00:47:11;10.80;99.90
18868;DHT22;9563;49.240;9.088;2022-10-31T00:49:38;10.70;99.90
18868;DHT22;9563;49.240;9.088;2022-10-31T00:52:05;10.70;99.90
18868;DHT22;9563;49.240;9.088;2022-10-31T00:54:32;10.60;99.90
18868;DHT22;9563;49.240;9.088;2022-10-31T00:56:59;10.50;99.90
18868;DHT22;9563;49.240;9.088;2022-10-31T00:59:27;10.60;99.90
18868;DHT22;9563;49.240;9.088;2022-10-31T01:01:54;10.60;99.90
18868;DHT22;9563;49.240;9.088;2022-10-31T01:04:21;10.60;99.90
18868;DHT22;9563;49.240;9.088;2022-10-31T01:06:48;10.60;99.90
18868;DHT22;9563;49.240;9.088;2022-10-31T01:09:15;10.60;99.90
18868;DHT22;9563;49.240;9.088;2022-10-31T01:11:42;10.60;99.90
18868;DHT22;9563;49.240;9.088;2022-10-31T01:14:09;10.70;99.90
18868;DHT22;9563;49.240;9.088;2022-10-31T01:16:38;10.70;99.90
18868;DHT22;9563;49.240;9.088;2022-10-31T01:19:05;10.70;99.90
18868;DHT22;9563;49.240;9.088;2022-10-31T01:21:32;10.70;99.90
18868;DHT22;9563;49.240;9.088;2022-10-31T01:23:59;10.60;99.90
18868;DHT22;9563;49.240;9.088;2022-10-31T01:26:28;10.60;99.90
18868;DHT22;9563;49.240;9.088;2022-10-31T01:28:57;10.60;99.90
18868;DHT22;9563;49.240;9.088;2022-10-31T01:31:26;10.50;99.90
18868;DHT22;9563;49.240;9.088;2022-10-31T01:33:55;10.50;99.90
18868;DHT22;9563;49.240;9.088;2022-10-31T01:36:24;10.50;99.90
18868;DHT22;9563;49.240;9.088;2022-10-31T01:38:53;10.50;99.90
18868;DHT22;9563;49.240;9.088;2022-10-31T01:41:22;10.60;99.90
18868;DHT22;9563;49.240;9.088;2022-10-31T01:43:51;10.60;99.90
18868;DHT22;9563;49.240;9.088;2022-10-31T01:46:21;10.60;99.90
18868;DHT22;9563;49.240;9.088;2022-10-31T01:48:50;10.50;99.90
18868;DHT22;9563;49.240;9.088;2022-10-31T01:51:20;10.40;99.90
18868;DHT22;9563;49.240;9.088;2022-10-31T01:53:50;10.30;99.90
18868;DHT22;9563;49.240;9.088;2022-10-31T01:56:18;10.20;99.90
18868;DHT22;9563;49.240;9.088;2022-10-31T01:58:46;10.10;99.90
18868;DHT22;9563;49.240;9.088;2022-10-31T02:01:14;10.10;99.90
18868;DHT22;9563;49.240;9.088;2022-10-31T02:03:43;10.10;99.90
18868;DHT22;9563;49.240;9.088;2022-10-31T02:06:17;10.10;99.90
18868;DHT22;9563;49.240;9.088;2022-10-31T02:08:47;10.10;99.90
18868;DHT22;9563;49.240;9.088;2022-10-31T02:11:15;10.10;99.90
18868;DHT22;9563;49.240;9.088;2022-10-31T02:13:42;10.10;99.90
18868;DHT22;9563;49.240;9.088;2022-10-31T02:16:09;10.10;99.90
18868;DHT22;9563;49.240;9.088;2022-10-31T02:18:36;10.00;99.90
18868;DHT22;9563;49.240;9.088;2022-10-31T02:21:09;10.00;99.90
18868;DHT22;9563;49.240;9.088;2022-10-31T02:24:04;10.10;99.90
18868;DHT22;9563;49.240;9.088;2022-10-31T02:26:57;10.10;99.90
18868;DHT22;9563;49.240;9.088;2022-10-31T02:29:52;10.10;99.90
18868;DHT22;9563;49.240;9.088;2022-10-31T02:32:26;10.30;99.90
18868;DHT22;9563;49.240;9.088;2022-10-31T02:34:58;10.20;99.90
18868;DHT22;9563;49.240;9.088;2022-10-31T02:37:34;10.20;99.90
18868;DHT22;9563;49.240;9.088;2022-10-31T02:40:09;10.20;99.90
18868;DHT22;9563;49.240;9.088;2022-10-31T02:42:43;10.10;99.90
18868;DHT22;9563;49.240;9.088;2022-10-31T02:45:19;10.20;99.90
18868;DHT22;9563;49.240;9.088;2022-10-31T02:47:54;10.10;99.90
18868;DHT22;9563;49.240;9.088;2022-10-31T02:50:24;10.10;99.90
18868;DHT22;9563;49.240;9.088;2022-10-31T02:52:53;10.10;99.90
18868;DHT22;9563;49.240;9.088;2022-10-31T02:55:49;10.10;99.90
18868;DHT22;9563;49.240;9.088;2022-10-31T02:58:19;10.20;99.90
18868;DHT22;9563;49.240;9.088;2022-10-31T03:01:04;10.20;99.90
18868;DHT22;9563;49.240;9.088;2022-10-31T03:03:42;10.30;99.90
18868;DHT22;9563;49.240;9.088;2022-10-31T03:06:14;10.20;99.90
18868;DHT22;9563;49.240;9.088;2022-10-31T03:08:50;10.20;99.90
18868;DHT22;9563;49.240;9.088;2022-10-31T03:11:24;10.10;99.90
18868;DHT22;9563;49.240;9.088;2022-10-31T03:13:59;10.10;99.90
18868;DHT22;9563;49.240;9.088;2022-10-31T03:16:34;10.20;99.90
18868;DHT22;9563;49.240;9.088;2022-10-31T03:19:08;10.20;99.90
18868;DHT22;9563;49.240;9.088;2022-10-31T03:21:39;10.20;99.90
18868;DHT22;9563;49.240;9.088;2022-10-31T03:24:08;10.30;99.90
18868;DHT22;9563;49.240;9.088;2022-10-31T03:26:38;10.30;99.90
18868;DHT22;9563;49.240;9.088;2022-10-31T03:29:07;10.40;99.90
18868;DHT22;9563;49.240;9.088;2022-10-31T03:31:38;10.50;99.90
18868;DHT22;9563;49.240;9.088;2022-10-31T03:34:08;10.50;99.90
18868;DHT22;9563;49.240;9.088;2022-10-31T03:36:38;10.60;99.90
18868;DHT22;9563;49.240;9.088;2022-10-31T03:39:09;10.70;99.90
18868;DHT22;9563;49.240;9.088;2022-10-31T03:41:41;10.80;99.90
18868;DHT22;9563;49.240;9.088;2022-10-31T03:44:12;10.80;99.90
18868;DHT22;9563;49.240;9.088;2022-10-31T03:46:40;10.80;99.90
18868;DHT22;9563;49.240;9.088;2022-10-31T03:49:11;10.80;99.90
18868;DHT22;9563;49.240;9.088;2022-10-31T03:51:43;10.80;99.90
18868;DHT22;9563;49.240;9.088;2022-10-31T03:54:16;10.90;99.90
18868;DHT22;9563;49.240;9.088;2022-10-31T03:56:50;10.90;99.90
18868;DHT22;9563;49.240;9.088;2022-10-31T03:59:22;10.90;99.90
18868;DHT22;9563;49.240;9.088;2022-10-31T04:01:55;11.00;99.90
18868;DHT22;9563;49.240;9.088;2022-10-31T04:04:25;11.00;99.90
18868;DHT22;9563;49.240;9.088;2022-10-31T04:06:55;11.00;99.90
18868;DHT22;9563;49.240;9.088;2022-10-31T04:09:24;11.00;99.90
18868;DHT22;9563;49.240;9.088;2022-10-31T04:11:53;11.00;99.90
18868;DHT22;9563;49.240;9.088;2022-10-31T04:14:22;11.00;99.90
18868;DHT22;9563;49.240;9.088;2022-10-31T04:16:51;11.00;99.90
18868;DHT22;9563;49.240;9.088;2022-10-31T04:19:18;11.00;99.90
18868;DHT22;9563;49.240;9.088;2022-10-31T04:21:46;11.00;99.90
18868;DHT22;9563;49.240;9.088;2022-10-31T04:24:13;10.90;99.90
18868;DHT22;9563;49.240;9.088;2022-10-31T04:26:40;10.90;99.90
18868;DHT22;9563;49.240;9.088;2022-10-31T04:29:06;10.90;99.90
18868;DHT22;9563;49.240;9.088;2022-10-31T04:31:34;10.90;99.90
18868;DHT22;9563;49.240;9.088;2022-10-31T04:34:00;10.80;99.90
18868;DHT22;9563;49.240;9.088;2022-10-31T04:36:27;10.90;99.90
18868;DHT22;9563;49.240;9.088;2022-10-31T04:38:55;10.90;99.90
18868;DHT22;9563;49.240;9.088;2022-10-31T04:41:22;10.80;99.90
18868;DHT22;9563;49.240;9.088;2022-10-31T04:43:49;10.80;99.90
18868;DHT22;9563;49.240;9.088;2022-10-31T04:46:16;10.80;99.90
18868;DHT22;9563;49.240;9.088;2022-10-31T04:48:43;10.80;99.90
18868;DHT22;9563;49.240;9.088;2022-10-31T04:51:10;10.80;99.90
18868;DHT22;9563;49.240;9.088;2022-10-31T04:53:37;10.80;99.90
18868;DHT22;9563;49.240;9.088;2022-10-31T04:56:06;10.70;99.90
18868;DHT22;9563;49.240;9.088;2022-10-31T04:58:33;10.60;99.90
18868;DHT22;9563;49.240;9.088;2022-10-31T05:01:00;10.60;99.90
18868;DHT22;9563;49.240;9.088;2022-10-31T05:03:27;10.60;99.90
18868;DHT22;9563;49.240;9.088;2022-10-31T05:05:54;10.60;99.90
18868;DHT22;9563;49.240;9.088;2022-10-31T05:08:21;10.60;99.90
18868;DHT22;9563;49.240;9.088;2022-10-31T05:10:48;10.60;99.90
18868;DHT22;9563;49.240;9.088;2022-10-31T05:13:16;10.60;99.90
18868;DHT22;9563;49.240;9.088;2022-10-31T05:15:43;10.60;99.90
18868;DHT22;9563;49.240;9.088;2022-10-31T05:18:10;10.60;99.90
18868;DHT22;9563;49.240;9.088;2022-10-31T05:20:37;10.60;99.90
18868;DHT22;9563;49.240;9.088;2022-10-31T05:23:04;10.50;99.90
18868;DHT22;9563;49.240;9.088;2022-10-31T05:25:31;10.50;99.90
18868;DHT22;9563;49.240;9.088;2022-10-31T05:27:58;10.60;99.90
18868;DHT22;9563;49.240;9.088;2022-10-31T05:30:28;10.60;99.90
18868;DHT22;9563;49.240;9.088;2022-10-31T05:32:55;10.50;99.90
18868;DHT22;9563;49.240;9.088;2022-10-31T05:35:25;10.50;99.90
18868;DHT22;9563;49.240;9.088;2022-10-31T05:37:52;10.50;99.90
18868;DHT22;9563;49.240;9.088;2022-10-31T05:40:20;10.50;99.90
18868;DHT22;9563;49.240;9.088;2022-10-31T05:42:50;10.50;99.90
18868;DHT22;9563;49.240;9.088;2022-10-31T05:45:18;10.50;99.90
18868;DHT22;9563;49.240;9.088;2022-10-31T05:47:52;10.50;99.90
18868;DHT22;9563;49.240;9.088;2022-10-31T05:50:19;10.50;99.90
18868;DHT22;9563;49.240;9.088;2022-10-31T05:52:46;10.50;99.90
18868;DHT22;9563;49.240;9.088;2022-10-31T05:55:13;10.50;99.90
18868;DHT22;9563;49.240;9.088;2022-10-31T05:57:40;10.40;99.90
18868;DHT22;9563;49.240;9.088;2022-10-31T06:00:08;10.40;99.90
18868;DHT22;9563;49.240;9.088;2022-10-31T06:02:35;10.40;99.90
18868;DHT22;9563;49.240;9.088;2022-10-31T06:05:04;10.30;99.90
18868;DHT22;9563;49.240;9.088;2022-10-31T06:07:35;10.20;99.90
18868;DHT22;9563;49.240;9.088;2022-10-31T06:10:03;10.00;99.90
18868;DHT22;9563;49.240;9.088;2022-10-31T06:12:31;9.90;99.90
18868;DHT22;9563;49.240;9.088;2022-10-31T06:15:03;9.80;99.90
18868;DHT22;9563;49.240;9.088;2022-10-31T06:17:31;9.80;99.90
18868;DHT22;9563;49.240;9.088;2022-10-31T06:19:58;9.70;99.90
18868;DHT22;9563;49.240;9.088;2022-10-31T06:22:27;9.80;99.90
18868;DHT22;9563;49.240;9.088;2022-10-31T06:24:54;9.80;99.90
18868;DHT22;9563;49.240;9.088;2022-10-31T06:27:21;9.90;99.90
18868;DHT22;9563;49.240;9.088;2022-10-31T06:29:48;10.00;99.90
18868;DHT22;9563;49.240;9.088;2022-10-31T06:32:15;10.00;99.90
18868;DHT22;9563;49.240;9.088;2022-10-31T06:34:42;10.10;99.90
18868;DHT22;9563;49.240;9.088;2022-10-31T06:37:11;10.10;99.90
18868;DHT22;9563;49.240;9.088;2022-10-31T06:39:39;10.10;99.90
18868;DHT22;9563;49.240;9.088;2022-10-31T06:42:06;10.20;99.90
18868;DHT22;9563;49.240;9.088;2022-10-31T06:44:33;10.20;99.90
18868;DHT22;9563;49.240;9.088;2022-10-31T06:47:00;10.20;99.90
18868;DHT22;9563;49.240;9.088;2022-10-31T06:49:27;10.20;99.90
18868;DHT22;9563;49.240;9.088;2022-10-31T06:51:54;10.20;99.90
18868;DHT22;9563;49.240;9.088;2022-10-31T06:54:20;10.30;99.90
18868;DHT22;9563;49.240;9.088;2022-10-31T06:56:49;10.30;99.90
18868;DHT22;9563;49.240;9.088;2022-10-31T06:59:16;10.40;99.90
18868;DHT22;9563;49.240;9.088;2022-10-31T07:01:43;10.50;99.90
18868;DHT22;9563;49.240;9.088;2022-10-31T07:04:10;10.60;99.90
18868;DHT22;9563;49.240;9.088;2022-10-31T07:06:38;10.80;99.90
18868;DHT22;9563;49.240;9.088;2022-10-31T07:09:05;11.00;99.90
18868;DHT22;9563;49.240;9.088;2022-10-31T07:11:32;11.30;99.90
18868;DHT22;9563;49.240;9.088;2022-10-31T07:14:00;11.50;99.90
18868;DHT22;9563;49.240;9.088;2022-10-31T07:16:27;11.60;99.90
18868;DHT22;9563;49.240;9.088;2022-10-31T07:18:54;11.70;99.90
18868;DHT22;9563;49.240;9.088;2022-10-31T07:21:22;12.00;99.90
18868;DHT22;9563;49.240;9.088;2022-10-31T07:23:49;12.20;99.90
18868;DHT22;9563;49.240;9.088;2022-10-31T07:26:16;12.20;99.90
18868;DHT22;9563;49.240;9.088;2022-10-31T07:28:43;12.40;99.90
18868;DHT22;9563;49.240;9.088;2022-10-31T07:31:11;12.50;99.90
18868;DHT22;9563;49.240;9.088;2022-10-31T07:33:38;12.60;99.90
18868;DHT22;9563;49.240;9.088;2022-10-31T07:36:06;12.90;99.90
18868;DHT22;9563;49.240;9.088;2022-10-31T07:38:33;13.20;99.90
18868;DHT22;9563;49.240;9.088;2022-10-31T07:41:00;13.30;99.90
18868;DHT22;9563;49.240;9.088;2022-10-31T07:43:27;13.40;99.90
18868;DHT22;9563;49.240;9.088;2022-10-31T07:45:54;13.40;99.90
18868;DHT22;9563;49.240;9.088;2022-10-31T07:48:23;13.40;99.90
18868;DHT22;9563;49.240;9.088;2022-10-31T07:50:50;13.40;99.90
18868;DHT22;9563;49.240;9.088;2022-10-31T07:53:16;13.50;99.90
18868;DHT22;9563;49.240;9.088;2022-10-31T07:55:43;13.70;99.90
18868;DHT22;9563;49.240;9.088;2022-10-31T07:58:12;14.00;99.90
18868;DHT22;9563;49.240;9.088;2022-10-31T08:00:40;14.20;99.90
18868;DHT22;9563;49.240;9.088;2022-10-31T08:03:09;14.60;99.90
18868;DHT22;9563;49.240;9.088;2022-10-31T08:05:38;14.80;99.90
18868;DHT22;9563;49.240;9.088;2022-10-31T08:08:06;15.00;99.90
18868;DHT22;9563;49.240;9.088;2022-10-31T08:10:34;15.20;99.90
18868;DHT22;9563;49.240;9.088;2022-10-31T08:13:04;15.20;99.90
18868;DHT22;9563;49.240;9.088;2022-10-31T08:15:31;15.20;99.90
18868;DHT22;9563;49.240;9.088;2022-10-31T08:17:59;15.20;99.90
18868;DHT22;9563;49.240;9.088;2022-10-31T08:20:27;15.20;99.90
18868;DHT22;9563;49.240;9.088;2022-10-31T08:22:57;15.30;99.90
18868;DHT22;9563;49.240;9.088;2022-10-31T08:25:27;15.30;99.90
18868;DHT22;9563;49.240;9.088;2022-10-31T08:27:55;15.50;99.90
18868;DHT22;9563;49.240;9.088;2022-10-31T08:30:24;15.60;99.90
18868;DHT22;9563;49.240;9.088;2022-10-31T08:33:02;15.70;99.90
18868;DHT22;9563;49.240;9.088;2022-10-31T08:35:29;15.90;99.90
18868;DHT22;9563;49.240;9.088;2022-10-31T08:37:58;16.00;99.90
18868;DHT22;9563;49.240;9.088;2022-10-31T08:40:27;16.20;99.90
18868;DHT22;9563;49.240;9.088;2022-10-31T08:42:58;16.20;99.90
18868;DHT22;9563;49.240;9.088;2022-10-31T08:45:26;16.30;99.90
18868;DHT22;9563;49.240;9.088;2022-10-31T08:47:57;16.30;99.90
18868;DHT22;9563;49.240;9.088;2022-10-31T08:50:24;16.30;99.90
18868;DHT22;9563;49.240;9.088;2022-10-31T08:52:51;16.40;99.90
18868;DHT22;9563;49.240;9.088;2022-10-31T08:55:20;16.50;99.90
18868;DHT22;9563;49.240;9.088;2022-10-31T08:57:47;16.50;99.90
18868;DHT22;9563;49.240;9.088;2022-10-31T09:00:14;16.60;99.90
18868;DHT22;9563;49.240;9.088;2022-10-31T09:02:41;16.60;99.90
18868;DHT22;9563;49.240;9.088;2022-10-31T09:05:08;16.60;99.90
18868;DHT22;9563;49.240;9.088;2022-10-31T09:07:35;16.80;99.90
18868;DHT22;9563;49.240;9.088;2022-10-31T09:10:02;16.80;99.90
18868;DHT22;9563;49.240;9.088;2022-10-31T09:12:31;16.90;99.90
18868;DHT22;9563;49.240;9.088;2022-10-31T09:14:58;16.80;99.90
18868;DHT22;9563;49.240;9.088;2022-10-31T09:17:26;16.70;99.90
18868;DHT22;9563;49.240;9.088;2022-10-31T09:19:54;16.60;99.90
18868;DHT22;9563;49.240;9.088;2022-10-31T09:22:21;16.60;99.90
18868;DHT22;9563;49.240;9.088;2022-10-31T09:24:49;16.80;99.90
18868;DHT22;9563;49.240;9.088;2022-10-31T09:27:16;16.90;99.90
18868;DHT22;9563;49.240;9.088;2022-10-31T09:29:44;16.90;99.90
18868;DHT22;9563;49.240;9.088;2022-10-31T09:32:11;16.90;99.90
18868;DHT22;9563;49.240;9.088;2022-10-31T09:34:38;16.90;99.90
18868;DHT22;9563;49.240;9.088;2022-10-31T09:37:05;16.90;99.90
18868;DHT22;9563;49.240;9.088;2022-10-31T09:39:32;16.90;99.90
18868;DHT22;9563;49.240;9.088;2022-10-31T09:42:09;17.00;99.90
18868;DHT22;9563;49.240;9.088;2022-10-31T09:44:48;17.10;99.90
18868;DHT22;9563;49.240;9.088;2022-10-31T09:47:23;17.00;99.90
18868;DHT22;9563;49.240;9.088;2022-10-31T09:50:06;17.20;99.90
18868;DHT22;9563;49.240;9.088;2022-10-31T09:52:43;17.20;99.90
18868;DHT22;9563;49.240;9.088;2022-10-31T09:55:16;17.10;99.90
18868;DHT22;9563;49.240;9.088;2022-10-31T09:57:44;17.30;99.90
18868;DHT22;9563;49.240;9.088;2022-10-31T10:00:18;17.50;99.90
18868;DHT22;9563;49.240;9.088;2022-10-31T10:02:51;17.70;99.90
18868;DHT22;9563;49.240;9.088;2022-10-31T10:05:24;18.00;99.90
18868;DHT22;9563;49.240;9.088;2022-10-31T10:08:00;18.20;99.90
18868;DHT22;9563;49.240;9.088;2022-10-31T10:10:37;18.40;99.90
18868;DHT22;9563;49.240;9.088;2022-10-31T10:13:30;18.20;99.90
18868;DHT22;9563;49.240;9.088;2022-10-31T10:16:12;18.00;99.90
18868;DHT22;9563;49.240;9.088;2022-10-31T10:18:51;17.90;99.90
18868;DHT22;9563;49.240;9.088;2022-10-31T10:21:26;17.90;99.90
18868;DHT22;9563;49.240;9.088;2022-10-31T10:24:05;18.00;99.90
18868;DHT22;9563;49.240;9.088;2022-10-31T10:26:37;18.00;99.90
18868;DHT22;9563;49.240;9.088;2022-10-31T10:29:17;18.00;99.90
18868;DHT22;9563;49.240;9.088;2022-10-31T10:31:50;18.10;99.90
18868;DHT22;9563;49.240;9.088;2022-10-31T10:34:20;18.00;99.90
18868;DHT22;9563;49.240;9.088;2022-10-31T10:36:53;18.00;99.90
18868;DHT22;9563;49.240;9.088;2022-10-31T10:39:24;18.10;99.90
18868;DHT22;9563;49.240;9.088;2022-10-31T10:41:52;18.30;99.90
18868;DHT22;9563;49.240;9.088;2022-10-31T10:44:37;18.40;99.90
18868;DHT22;9563;49.240;9.088;2022-10-31T10:47:24;18.40;99.90
18868;DHT22;9563;49.240;9.088;2022-10-31T10:50:10;18.30;99.90
18868;DHT22;9563;49.240;9.088;2022-10-31T10:52:45;18.30;99.90
18868;DHT22;9563;49.240;9.088;2022-10-31T10:55:18;18.40;99.90
18868;DHT22;9563;49.240;9.088;2022-10-31T10:57:55;18.40;99.90
18868;DHT22;9563;49.240;9.088;2022-10-31T11:00:24;18.30;99.90
18868;DHT22;9563;49.240;9.088;2022-10-31T11:02:54;18.20;99.90
18868;DHT22;9563;49.240;9.088;2022-10-31T11:05:28;18.10;99.90
18868;DHT22;9563;49.240;9.088;2022-10-31T11:07:56;18.10;99.90
18868;DHT22;9563;49.240;9.088;2022-10-31T11:10:24;18.10;99.90
18868;DHT22;9563;49.240;9.088;2022-10-31T11:13:03;18.10;99.90
18868;DHT22;9563;49.240;9.088;2022-10-31T11:15:37;18.00;99.90
18868;DHT22;9563;49.240;9.088;2022-10-31T11:18:19;17.90;99.90
18868;DHT22;9563;49.240;9.088;2022-10-31T11:20:51;17.90;99.90
18868;DHT22;9563;49.240;9.088;2022-10-31T11:23:21;17.90;99.90
18868;DHT22;9563;49.240;9.088;2022-10-31T11:25:50;17.90;99.90
18868;DHT22;9563;49.240;9.088;2022-10-31T11:28:17;17.80;99.90
18868;DHT22;9563;49.240;9.088;2022-10-31T11:30:47;17.80;99.90
18868;DHT22;9563;49.240;9.088;2022-10-31T11:33:20;17.70;99.90
18868;DHT22;9563;49.240;9.088;2022-10-31T11:35:49;17.60;99.90
18868;DHT22;9563;49.240;9.088;2022-10-31T11:38:19;17.60;99.90
18868;DHT22;9563;49.240;9.088;2022-10-31T11:40:54;17.60;99.90
18868;DHT22;9563;49.240;9.088;2022-10-31T11:43:22;17.50;99.90
18868;DHT22;9563;49.240;9.088;2022-10-31T11:45:50;17.50;99.90
18868;DHT22;9563;49.240;9.088;2022-10-31T11:48:21;17.50;99.90
18868;DHT22;9563;49.240;9.088;2022-10-31T11:50:52;17.50;99.90
18868;DHT22;9563;49.240;9.088;2022-10-31T11:53:22;17.40;99.90
18868;DHT22;9563;49.240;9.088;2022-10-31T11:56:03;17.40;99.90
18868;DHT22;9563;49.240;9.088;2022-10-31T11:58:31;17.30;99.90
18868;DHT22;9563;49.240;9.088;2022-10-31T12:00:58;17.30;99.90
18868;DHT22;9563;49.240;9.088;2022-10-31T12:03:36;17.30;99.90
18868;DHT22;9563;49.240;9.088;2022-10-31T12:06:09;17.30;99.90
18868;DHT22;9563;49.240;9.088;2022-10-31T12:08:39;17.30;99.90
18868;DHT22;9563;49.240;9.088;2022-10-31T12:11:15;17.30;99.90
18868;DHT22;9563;49.240;9.088;2022-10-31T12:13:51;17.40;99.90
18868;DHT22;9563;49.240;9.088;2022-10-31T12:16:27;17.40;99.90
18868;DHT22;9563;49.240;9.088;2022-10-31T12:19:00;17.40;99.90
18868;DHT22;9563;49.240;9.088;2022-10-31T12:21:39;17.40;99.90
18868;DHT22;9563;49.240;9.088;2022-10-31T12:24:19;17.50;99.90
18868;DHT22;9563;49.240;9.088;2022-10-31T12:26:55;17.50;99.90
18868;DHT22;9563;49.240;9.088;2022-10-31T12:29:45;17.50;99.90
18868;DHT22;9563;49.240;9.088;2022-10-31T12:32:32;17.50;99.90
18868;DHT22;9563;49.240;9.088;2022-10-31T12:35:14;17.50;99.90
18868;DHT22;9563;49.240;9.088;2022-10-31T12:37:54;17.50;99.90
18868;DHT22;9563;49.240;9.088;2022-10-31T12:40:38;17.60;99.90
18868;DHT22;9563;49.240;9.088;2022-10-31T12:43:20;17.60;99.90
18868;DHT22;9563;49.240;9.088;2022-10-31T12:45:53;17.70;99.90
18868;DHT22;9563;49.240;9.088;2022-10-31T12:48:48;17.50;99.90
18868;DHT22;9563;49.240;9.088;2022-10-31T12:51:27;17.60;99.90
18868;DHT22;9563;49.240;9.088;2022-10-31T12:54:13;17.60;99.90
18868;DHT22;9563;49.240;9.088;2022-10-31T12:56:50;17.40;99.90
18868;DHT22;9563;49.240;9.088;2022-10-31T12:59:27;17.50;99.90
18868;DHT22;9563;49.240;9.088;2022-10-31T13:01:57;17.50;99.90
18868;DHT22;9563;49.240;9.088;2022-10-31T13:04:36;17.50;99.90
18868;DHT22;9563;49.240;9.088;2022-10-31T13:07:11;17.50;99.90
18868;DHT22;9563;49.240;9.088;2022-10-31T13:09:51;17.50;99.90
18868;DHT22;9563;49.240;9.088;2022-10-31T13:12:21;17.50;99.90
18868;DHT22;9563;49.240;9.088;2022-10-31T13:14:51;17.50;99.90
18868;DHT22;9563;49.240;9.088;2022-10-31T13:17:25;17.50;99.90
18868;DHT22;9563;49.240;9.088;2022-10-31T13:20:19;17.50;99.90
18868;DHT22;9563;49.240;9.088;2022-10-31T13:22:51;17.50;99.90
18868;DHT22;9563;49.240;9.088;2022-10-31T13:25:21;17.50;99.90
18868;DHT22;9563;49.240;9.088;2022-10-31T13:27:54;17.50;99.90
18868;DHT22;9563;49.240;9.088;2022-10-31T13:30:23;17.40;99.90
18868;DHT22;9563;49.240;9.088;2022-10-31T13:33:00;17.40;99.90
18868;DHT22;9563;49.240;9.088;2022-10-31T13:35:33;17.30;99.90
18868;DHT22;9563;49.240;9.088;2022-10-31T13:38:19;17.30;99.90
18868;DHT22;9563;49.240;9.088;2022-10-31T13:40:53;17.30;99.90
18868;DHT22;9563;49.240;9.088;2022-10-31T13:43:31;17.30;99.90
18868;DHT22;9563;49.240;9.088;2022-10-31T13:45:59;17.30;99.90
18868;DHT22;9563;49.240;9.088;2022-10-31T13:48:37;17.30;99.90
18868;DHT22;9563;49.240;9.088;2022-10-31T13:51:09;17.30;99.90
18868;DHT22;9563;49.240;9.088;2022-10-31T13:53:41;17.30;99.90
18868;DHT22;9563;49.240;9.088;2022-10-31T13:56:16;17.40;99.90
18868;DHT22;9563;49.240;9.088;2022-10-31T13:59:01;17.60;99.90
18868;DHT22;9563;49.240;9.088;2022-10-31T14:01:29;17.90;99.90
18868;DHT22;9563;49.240;9.088;2022-10-31T14:04:00;18.10;99.90
18868;DHT22;9563;49.240;9.088;2022-10-31T14:06:53;18.20;99.90
18868;DHT22;9563;49.240;9.088;2022-10-31T14:09:30;18.30;99.90
18868;DHT22;9563;49.240;9.088;2022-10-31T14:11:59;18.40;99.90
18868;DHT22;9563;49.240;9.088;2022-10-31T14:14:35;18.40;99.90
18868;DHT22;9563;49.240;9.088;2022-10-31T14:17:17;18.40;99.90
18868;DHT22;9563;49.240;9.088;2022-10-31T14:20:00;18.50;99.90
18868;DHT22;9563;49.240;9.088;2022-10-31T14:22:31;18.50;99.90
18868;DHT22;9563;49.240;9.088;2022-10-31T14:24:59;18.50;99.90
18868;DHT22;9563;49.240;9.088;2022-10-31T14:27:34;18.50;99.90
18868;DHT22;9563;49.240;9.088;2022-10-31T14:30:14;18.60;99.90
18868;DHT22;9563;49.240;9.088;2022-10-31T14:32:43;18.50;99.90
18868;DHT22;9563;49.240;9.088;2022-10-31T14:35:15;18.40;99.90
18868;DHT22;9563;49.240;9.088;2022-10-31T14:37:58;18.30;99.90
18868;DHT22;9563;49.240;9.088;2022-10-31T14:40:35;18.10;99.90
18868;DHT22;9563;49.240;9.088;2022-10-31T14:43:20;18.00;99.90
18868;DHT22;9563;49.240;9.088;2022-10-31T14:45:58;17.90;99.90
18868;DHT22;9563;49.240;9.088;2022-10-31T14:48:49;17.80;99.90
18868;DHT22;9563;49.240;9.088;2022-10-31T14:51:21;17.70;99.90
18868;DHT22;9563;49.240;9.088;2022-10-31T14:53:50;17.60;99.90
18868;DHT22;9563;49.240;9.088;2022-10-31T14:56:22;17.60;99.90
18868;DHT22;9563;49.240;9.088;2022-10-31T14:58:50;17.60;99.90
18868;DHT22;9563;49.240;9.088;2022-10-31T15:01:22;17.50;99.90
18868;DHT22;9563;49.240;9.088;2022-10-31T15:03:50;17.50;99.90
18868;DHT22;9563;49.240;9.088;2022-10-31T15:06:20;17.40;99.90
18868;DHT22;9563;49.240;9.088;2022-10-31T15:08:50;17.30;99.90
18868;DHT22;9563;49.240;9.088;2022-10-31T15:11:20;17.20;99.90
18868;DHT22;9563;49.240;9.088;2022-10-31T15:13:48;17.20;99.90
18868;DHT22;9563;49.240;9.088;2022-10-31T15:16:19;17.10;99.90
18868;DHT22;9563;49.240;9.088;2022-10-31T15:18:54;17.10;99.90
18868;DHT22;9563;49.240;9.088;2022-10-31T15:21:23;17.00;99.90
18868;DHT22;9563;49.240;9.088;2022-10-31T15:23:53;17.00;99.90
18868;DHT22;9563;49.240;9.088;2022-10-31T15:26:23;16.80;99.90
18868;DHT22;9563;49.240;9.088;2022-10-31T15:29:00;16.70;99.90
18868;DHT22;9563;49.240;9.088;2022-10-31T15:31:28;16.50;99.90
18868;DHT22;9563;49.240;9.088;2022-10-31T15:34:00;16.40;99.90
18868;DHT22;9563;49.240;9.088;2022-10-31T15:36:28;16.40;99.90
18868;DHT22;9563;49.240;9.088;2022-10-31T15:38:56;16.30;99.90
18868;DHT22;9563;49.240;9.088;2022-10-31T15:41:29;16.30;99.90
18868;DHT22;9563;49.240;9.088;2022-10-31T15:44:01;16.20;99.90
18868;DHT22;9563;49.240;9.088;2022-10-31T15:46:29;16.20;99.90
18868;DHT22;9563;49.240;9.088;2022-10-31T15:48:57;16.10;99.90
18868;DHT22;9563;49.240;9.088;2022-10-31T15:51:30;16.10;99.90
18868;DHT22;9563;49.240;9.088;2022-10-31T15:53:58;16.00;99.90
18868;DHT22;9563;49.240;9.088;2022-10-31T15:56:31;15.80;99.90
18868;DHT22;9563;49.240;9.088;2022-10-31T15:58:59;15.60;99.90
18868;DHT22;9563;49.240;9.088;2022-10-31T16:01:28;15.60;99.90
18868;DHT22;9563;49.240;9.088;2022-10-31T16:04:04;15.50;99.90
18868;DHT22;9563;49.240;9.088;2022-10-31T16:06:33;15.40;99.90
18868;DHT22;9563;49.240;9.088;2022-10-31T16:09:00;15.40;99.90
18868;DHT22;9563;49.240;9.088;2022-10-31T16:11:35;15.40;99.90